Time;durP1;ratioP1;P1;durP2;ratioP2;P2;SDS_P1;SDS_P2;PMS_P1;PMS_P2;Temp;Humidity;BMP_temperature;BMP_pressure;BME280_temperature;BME280_humidity;BME280_pressure;Samples;Min_cycle;Max_cycle;Signal;HPM_P1;HPM_P2
2023/03/10 00:00:43;;;;;;;43.53;33.03;;;1.60;90.10;;;;;;4975414;28;20196;-92
2023/03/10 00:03:09;;;;;;;42.93;28.93;;;1.60;90.10;;;;;;4964918;28;20190;-93
2023/03/10 00:05:37;;;;;;;45.47;34.03;;;1.60;90.20;;;;;;4961363;28;20182;-92
2023/03/10 00:08:03;;;;;;;45.17;32.43;;;1.60;90.20;;;;;;4961536;28;20284;-92
2023/03/10 00:10:29;;;;;;;47.50;35.00;;;1.60;90.30;;;;;;4969196;28;20188;-92
2023/03/10 00:12:54;;;;;;;42.73;33.00;;;1.50;90.20;;;;;;4967344;28;20232;-91
2023/03/10 00:15:20;;;;;;;38.87;28.83;;;1.60;90.30;;;;;;4963498;28;20530;-93
2023/03/10 00:17:48;;;;;;;43.87;31.17;;;1.60;90.30;;;;;;4967982;28;20234;-93
2023/03/10 00:20:15;;;;;;;43.50;31.30;;;1.50;90.30;;;;;;4975291;28;20181;-93
2023/03/10 00:22:40;;;;;;;46.67;33.50;;;1.50;90.30;;;;;;4974108;28;20197;-91
2023/03/10 00:25:08;;;;;;;45.03;33.37;;;1.50;90.30;;;;;;4976070;28;20214;-93
2023/03/10 00:27:33;;;;;;;39.83;29.80;;;1.60;90.30;;;;;;4973000;28;20300;-91
2023/03/10 00:29:59;;;;;;;39.03;27.17;;;1.50;90.30;;;;;;4967337;28;20217;-91
2023/03/10 00:32:25;;;;;;;45.90;32.40;;;1.50;90.30;;;;;;4960476;28;20182;-90
2023/03/10 00:34:50;;;;;;;40.77;30.87;;;1.50;90.30;;;;;;4978262;28;20178;-91
2023/03/10 00:37:17;;;;;;;41.00;29.43;;;1.50;90.30;;;;;;4962373;28;20209;-91
2023/03/10 00:39:43;;;;;;;44.57;31.30;;;1.50;90.20;;;;;;4977956;28;20186;-91
2023/03/10 00:42:08;;;;;;;37.73;27.43;;;1.50;90.20;;;;;;4978227;28;20181;-91
2023/03/10 00:44:34;;;;;;;39.77;30.00;;;1.50;90.20;;;;;;4978112;28;20178;-91
2023/03/10 00:46:59;;;;;;;43.33;31.47;;;1.50;90.20;;;;;;4960239;28;20231;-91
2023/03/10 00:49:25;;;;;;;42.17;30.90;;;1.50;90.20;;;;;;4961577;28;20251;-91
2023/03/10 00:51:51;;;;;;;43.80;34.30;;;1.50;90.30;;;;;;4978754;28;20192;-91
2023/03/10 00:54:16;;;;;;;31.30;24.13;;;1.40;90.20;;;;;;4964062;28;20185;-91
2023/03/10 00:56:42;;;;;;;40.03;27.93;;;1.40;90.30;;;;;;4964783;28;20200;-91
2023/03/10 00:59:10;;;;;;;45.57;32.77;;;1.40;90.30;;;;;;4960944;28;20672;-91
2023/03/10 01:01:39;;;;;;;35.57;27.87;;;1.40;90.30;;;;;;4962263;28;20180;-91
2023/03/10 01:04:15;;;;;;;38.17;28.60;;;1.40;90.40;;;;;;4960838;28;20232;-91
2023/03/10 01:06:43;;;;;;;40.93;30.43;;;1.30;90.50;;;;;;4962256;28;20173;-91
2023/03/10 01:09:08;;;;;;;45.30;32.00;;;1.30;90.50;;;;;;4960796;28;20225;-91
2023/03/10 01:11:34;;;;;;;45.63;34.53;;;1.30;90.60;;;;;;4960507;28;20250;-91
2023/03/10 01:14:03;;;;;;;46.43;35.47;;;1.30;90.70;;;;;;4960480;28;20232;-91
2023/03/10 01:16:28;;;;;;;44.90;33.87;;;1.30;90.70;;;;;;4961070;28;20213;-91
2023/03/10 01:18:55;;;;;;;50.60;34.83;;;1.30;90.80;;;;;;4960465;28;20221;-91
2023/03/10 01:21:27;;;;;;;39.03;27.53;;;1.30;90.90;;;;;;4977929;28;20656;-91
2023/03/10 01:23:52;;;;;;;46.90;34.33;;;1.30;90.90;;;;;;4961014;28;20178;-91
2023/03/10 01:26:18;;;;;;;47.93;36.10;;;1.30;91.00;;;;;;4960231;28;20242;-91
2023/03/10 01:28:44;;;;;;;42.83;32.77;;;1.30;91.00;;;;;;4959705;28;20575;-91
2023/03/10 01:31:10;;;;;;;46.87;35.10;;;1.30;91.10;;;;;;4959594;28;20281;-91
2023/03/10 01:33:41;;;;;;;48.50;36.07;;;1.30;91.20;;;;;;4959972;28;20192;-91
2023/03/10 01:36:12;;;;;;;41.27;28.97;;;1.20;91.30;;;;;;4977659;28;20213;-91
2023/03/10 01:38:38;;;;;;;46.03;36.77;;;1.20;91.50;;;;;;4977270;28;20289;-91
2023/03/10 01:41:04;;;;;;;41.30;31.97;;;1.20;91.50;;;;;;4978602;28;20181;-91
2023/03/10 01:43:36;;;;;;;51.43;39.23;;;1.20;91.60;;;;;;4976654;28;20237;-91
2023/03/10 01:46:37;;;;;;;46.90;33.73;;;1.10;91.70;;;;;;4960638;28;20181;-91
2023/03/10 01:49:09;;;;;;;31.97;24.53;;;1.10;91.80;;;;;;4884363;29;20233;-91
2023/03/10 01:51:37;;;;;;;50.10;35.03;;;1.10;91.90;;;;;;4949384;28;20242;-91
2023/03/10 01:54:07;;;;;;;27.10;24.27;;;1.10;91.90;;;;;;4961093;28;20300;-91
2023/03/10 01:56:34;;;;;;;52.87;34.53;;;1.10;91.90;;;;;;4978760;28;20217;-91
2023/03/10 01:59:00;;;;;;;53.60;36.77;;;1.10;92.00;;;;;;4961476;28;20205;-91
2023/03/10 02:01:25;;;;;;;51.17;36.03;;;1.00;92.00;;;;;;4978789;28;20209;-91
2023/03/10 02:04:26;;;;;;;55.90;37.37;;;1.00;92.10;;;;;;4963257;28;20238;-91
2023/03/10 02:06:52;;;;;;;46.30;34.00;;;1.10;92.20;;;;;;4961170;28;20303;-91
2023/03/10 02:09:19;;;;;;;50.93;35.97;;;1.00;92.20;;;;;;4964243;28;20184;-91
2023/03/10 02:11:46;;;;;;;40.47;26.93;;;1.00;92.20;;;;;;4982529;28;20232;-91
2023/03/10 02:14:12;;;;;;;51.67;33.23;;;1.00;92.20;;;;;;4961054;28;20189;-91
2023/03/10 02:16:37;;;;;;;54.87;38.80;;;1.00;92.30;;;;;;4977794;28;20256;-91
2023/03/10 02:19:07;;;;;;;30.13;25.43;;;1.10;92.30;;;;;;4983049;28;20212;-91
2023/03/10 02:21:56;;;;;;;32.33;25.30;;;1.00;92.30;;;;;;4987942;28;20191;-91
2023/03/10 02:24:32;;;;;;;45.73;31.80;;;1.00;92.30;;;;;;4967644;28;20629;-91
2023/03/10 02:27:04;;;;;;;46.80;33.60;;;1.00;92.20;;;;;;4980131;28;20201;-91
2023/03/10 02:29:37;;;;;;;27.77;23.30;;;1.00;92.20;;;;;;4968295;28;20177;-91
2023/03/10 02:32:03;;;;;;;26.07;21.47;;;1.00;92.20;;;;;;4967834;28;20173;-91
2023/03/10 02:34:28;;;;;;;29.23;22.67;;;1.00;92.20;;;;;;4979966;28;20240;-91
2023/03/10 02:36:54;;;;;;;33.87;24.60;;;1.00;92.20;;;;;;4982349;28;20209;-91
2023/03/10 02:39:20;;;;;;;36.47;28.50;;;1.00;92.10;;;;;;4982218;28;20189;-91
2023/03/10 02:41:46;;;;;;;23.07;20.70;;;1.00;92.10;;;;;;4967100;28;20649;-91
2023/03/10 02:44:15;;;;;;;24.20;21.30;;;1.00;92.10;;;;;;4964401;28;20179;-91
2023/03/10 02:46:41;;;;;;;35.10;24.80;;;1.00;92.00;;;;;;4982255;28;20174;-91
2023/03/10 02:49:09;;;;;;;31.47;24.17;;;1.00;92.00;;;;;;4966587;28;20734;-91
2023/03/10 02:51:41;;;;;;;25.00;22.30;;;1.00;92.00;;;;;;4966220;28;20664;-91
2023/03/10 02:54:08;;;;;;;25.17;21.50;;;1.00;92.00;;;;;;4967158;28;20374;-91
2023/03/10 02:56:34;;;;;;;38.23;26.33;;;1.00;92.00;;;;;;4965099;28;20213;-91
2023/03/10 02:59:00;;;;;;;29.03;24.83;;;1.00;92.00;;;;;;4964935;28;20610;-91
2023/03/10 03:01:28;;;;;;;33.10;27.50;;;1.00;92.00;;;;;;4966427;28;20221;-91
2023/03/10 03:03:54;;;;;;;21.83;19.53;;;1.00;92.00;;;;;;4985332;28;20176;-91
2023/03/10 03:06:20;;;;;;;38.13;25.47;;;1.00;92.00;;;;;;4983646;28;20184;-91
2023/03/10 03:08:45;;;;;;;25.97;23.00;;;1.00;91.90;;;;;;4984931;28;20206;-91
2023/03/10 03:11:11;;;;;;;39.40;27.70;;;1.00;91.90;;;;;;4967712;28;20185;-91
2023/03/10 03:13:37;;;;;;;31.93;24.70;;;1.00;91.90;;;;;;4966378;28;20251;-91
2023/03/10 03:16:05;;;;;;;21.73;19.47;;;1.10;91.90;;;;;;4967030;28;20303;-91
2023/03/10 03:18:31;;;;;;;20.70;18.53;;;1.00;91.80;;;;;;4969145;28;20201;-91
2023/03/10 03:20:56;;;;;;;20.30;17.77;;;1.00;91.70;;;;;;4969647;28;20200;-91
2023/03/10 03:23:22;;;;;;;32.00;25.37;;;1.00;91.60;;;;;;4965780;28;20554;-91
2023/03/10 03:25:47;;;;;;;34.10;26.60;;;1.00;91.50;;;;;;4966851;28;20184;-91
2023/03/10 03:28:13;;;;;;;24.30;21.10;;;1.00;91.50;;;;;;4968897;28;20273;-91
2023/03/10 03:30:39;;;;;;;19.43;17.37;;;1.00;91.50;;;;;;4989203;28;20745;-91
2023/03/10 03:33:06;;;;;;;17.10;15.57;;;1.00;91.50;;;;;;4986058;28;20189;-91
2023/03/10 03:35:34;;;;;;;29.50;23.90;;;1.00;91.40;;;;;;4966358;28;20185;-91
2023/03/10 03:38:00;;;;;;;26.53;20.67;;;1.00;91.50;;;;;;4970567;28;20777;-91
2023/03/10 03:40:32;;;;;;;32.57;26.77;;;1.00;91.50;;;;;;4986064;28;20182;-91
2023/03/10 03:42:58;;;;;;;25.23;22.63;;;0.90;91.60;;;;;;4981807;28;20718;-91
2023/03/10 03:45:25;;;;;;;22.77;20.77;;;0.90;91.70;;;;;;4985865;28;20249;-91
2023/03/10 03:47:51;;;;;;;32.27;21.63;;;0.90;91.70;;;;;;4986195;28;20202;-91
2023/03/10 03:50:19;;;;;;;22.03;19.77;;;0.90;91.80;;;;;;4966655;28;20183;-90
2023/03/10 03:52:45;;;;;;;36.37;27.67;;;0.90;91.80;;;;;;4968490;28;20235;-91
2023/03/10 03:55:13;;;;;;;28.20;24.27;;;0.80;91.90;;;;;;4982801;28;20182;-91
2023/03/10 03:57:39;;;;;;;31.83;25.03;;;0.90;91.90;;;;;;4965647;28;20213;-91
2023/03/10 04:00:07;;;;;;;28.10;25.23;;;0.90;92.00;;;;;;4982623;28;20202;-91
2023/03/10 04:02:33;;;;;;;34.30;26.97;;;0.80;92.00;;;;;;4967978;28;20197;-91
2023/03/10 04:04:59;;;;;;;27.93;24.37;;;0.90;92.10;;;;;;4963266;28;20187;-91
2023/03/10 04:07:25;;;;;;;38.13;26.60;;;0.80;92.20;;;;;;4970542;28;20676;-91
2023/03/10 04:09:51;;;;;;;32.73;28.63;;;0.80;92.20;;;;;;4968208;28;20185;-91
2023/03/10 04:12:17;;;;;;;47.93;34.10;;;0.80;92.30;;;;;;4966730;28;20192;-91
2023/03/10 04:14:42;;;;;;;29.47;26.03;;;0.80;92.30;;;;;;4969330;28;20185;-91
2023/03/10 04:17:08;;;;;;;37.10;28.70;;;0.80;92.40;;;;;;4969170;28;20212;-91
2023/03/10 04:19:33;;;;;;;45.80;34.53;;;0.80;92.40;;;;;;4962896;28;20181;-90
2023/03/10 04:21:59;;;;;;;31.20;28.00;;;0.80;92.50;;;;;;4983954;28;20181;-91
2023/03/10 04:24:25;;;;;;;37.00;30.60;;;0.80;92.60;;;;;;4983224;28;20205;-90
2023/03/10 04:26:50;;;;;;;43.83;35.50;;;0.80;92.60;;;;;;4981677;28;20180;-91
2023/03/10 04:29:16;;;;;;;41.97;34.57;;;0.70;92.70;;;;;;4965522;28;20224;-91
2023/03/10 04:31:41;;;;;;;46.03;37.67;;;0.70;92.80;;;;;;4979863;28;20245;-91
2023/03/10 04:34:07;;;;;;;33.53;30.23;;;0.70;92.80;;;;;;4964853;28;20252;-90
2023/03/10 04:36:33;;;;;;;47.90;37.40;;;0.70;92.90;;;;;;4983466;28;20622;-90
2023/03/10 04:38:58;;;;;;;38.90;32.97;;;0.70;93.00;;;;;;4983143;28;20193;-90
2023/03/10 04:41:24;;;;;;;41.87;36.90;;;0.60;93.10;;;;;;4982889;28;20181;-91
2023/03/10 04:43:50;;;;;;;42.60;35.33;;;0.60;93.20;;;;;;4964465;28;20183;-91
2023/03/10 04:46:16;;;;;;;43.63;37.27;;;0.60;93.20;;;;;;4982278;28;20182;-90
2023/03/10 04:48:42;;;;;;;42.20;35.47;;;0.60;93.30;;;;;;4967039;28;20278;-91
2023/03/10 04:51:11;;;;;;;37.37;33.47;;;0.60;93.40;;;;;;4981436;28;20207;-91
2023/03/10 04:53:37;;;;;;;42.27;37.73;;;0.60;93.50;;;;;;4963398;28;20198;-91
2023/03/10 04:56:05;;;;;;;47.37;34.90;;;0.60;93.60;;;;;;4964854;28;20213;-91
2023/03/10 04:58:32;;;;;;;52.03;43.03;;;0.60;93.60;;;;;;4962774;28;20206;-91
2023/03/10 05:00:58;;;;;;;36.23;32.67;;;0.50;93.70;;;;;;4965803;28;20181;-90
2023/03/10 05:03:23;;;;;;;38.67;31.63;;;0.50;93.70;;;;;;4964189;28;20190;-90
2023/03/10 05:05:49;;;;;;;39.03;34.43;;;0.50;93.80;;;;;;4980098;28;20248;-90
2023/03/10 05:08:15;;;;;;;41.30;37.20;;;0.50;93.80;;;;;;4979548;28;20211;-90
2023/03/10 05:10:43;;;;;;;45.57;40.57;;;0.50;93.80;;;;;;4979780;28;20191;-90
2023/03/10 05:13:11;;;;;;;39.90;35.67;;;0.50;93.80;;;;;;4978797;28;20231;-90
2023/03/10 05:15:40;;;;;;;38.13;34.40;;;0.50;93.80;;;;;;4979386;28;20663;-90
2023/03/10 05:18:07;;;;;;;35.50;32.07;;;0.50;93.90;;;;;;4979541;28;20253;-91
2023/03/10 05:20:32;;;;;;;47.87;38.77;;;0.50;93.90;;;;;;4962479;28;20176;-91
2023/03/10 05:22:58;;;;;;;44.43;39.67;;;0.50;93.90;;;;;;4978245;28;20184;-91
2023/03/10 05:25:24;;;;;;;36.67;32.90;;;0.50;93.90;;;;;;4978511;28;20178;-90
2023/03/10 05:27:49;;;;;;;46.03;40.53;;;0.40;93.80;;;;;;4978823;28;20268;-90
2023/03/10 05:30:15;;;;;;;40.17;36.20;;;0.50;93.90;;;;;;4961590;28;20175;-90
2023/03/10 05:32:42;;;;;;;35.70;32.10;;;0.50;93.80;;;;;;4978694;28;20222;-90
2023/03/10 05:35:09;;;;;;;50.07;44.60;;;0.40;93.80;;;;;;4959960;28;20651;-91
2023/03/10 05:37:38;;;;;;;41.17;36.90;;;0.50;93.90;;;;;;4960422;28;20212;-91
2023/03/10 05:40:14;;;;;;;45.57;40.47;;;0.50;93.90;;;;;;4978109;28;20173;-91
2023/03/10 05:42:40;;;;;;;45.47;40.43;;;0.50;93.90;;;;;;4960797;28;20283;-90
2023/03/10 05:45:06;;;;;;;57.30;47.10;;;0.50;93.90;;;;;;4978057;28;20204;-91
2023/03/10 05:47:32;;;;;;;48.37;43.33;;;0.50;93.90;;;;;;4960395;28;20203;-91
2023/03/10 05:49:59;;;;;;;41.37;36.93;;;0.50;93.90;;;;;;4961314;28;20240;-91
2023/03/10 05:52:24;;;;;;;35.70;31.33;;;0.50;93.90;;;;;;4979250;28;20199;-91
2023/03/10 05:54:50;;;;;;;41.57;37.60;;;0.40;93.80;;;;;;4978978;28;20181;-91
2023/03/10 05:57:15;;;;;;;47.23;42.17;;;0.40;93.80;;;;;;4977555;28;20213;-91
2023/03/10 05:59:42;;;;;;;52.13;44.30;;;0.50;93.80;;;;;;4961058;28;20184;-91
2023/03/10 06:02:07;;;;;;;48.07;42.93;;;0.50;93.70;;;;;;4979755;28;20643;-91
2023/03/10 06:04:33;;;;;;;41.03;37.13;;;0.50;93.70;;;;;;4980776;28;20193;-90
2023/03/10 06:06:59;;;;;;;52.50;46.87;;;0.50;93.60;;;;;;4961053;28;20235;-89
2023/03/10 06:09:30;;;;;;;44.20;39.73;;;0.50;93.60;;;;;;4960910;28;20180;-91
2023/03/10 06:11:56;;;;;;;48.93;40.57;;;0.50;93.50;;;;;;4977948;28;20176;-90
2023/03/10 06:14:22;;;;;;;49.83;43.37;;;0.60;93.50;;;;;;4977243;28;20180;-90
2023/03/10 06:16:50;;;;;;;36.83;33.53;;;0.60;93.40;;;;;;4961199;28;20622;-90
2023/03/10 06:19:20;;;;;;;47.10;39.90;;;0.60;93.30;;;;;;4977461;28;20173;-90
2023/03/10 06:21:46;;;;;;;47.40;42.17;;;0.60;93.20;;;;;;4960643;28;20184;-90
2023/03/10 06:24:12;;;;;;;48.73;41.87;;;0.60;93.20;;;;;;4976427;28;20333;-90
2023/03/10 06:26:38;;;;;;;50.37;39.97;;;0.70;93.10;;;;;;4959356;28;20189;-90
2023/03/10 06:29:04;;;;;;;43.60;38.93;;;0.70;93.10;;;;;;4976105;28;20648;-90
2023/03/10 06:31:29;;;;;;;46.40;38.73;;;0.70;93.00;;;;;;4976227;28;20177;-90
2023/03/10 06:33:55;;;;;;;31.67;28.83;;;0.70;92.90;;;;;;4977359;28;20196;-90
2023/03/10 06:36:22;;;;;;;32.57;29.17;;;0.70;92.80;;;;;;4961648;28;20211;-90
2023/03/10 06:38:48;;;;;;;27.07;24.33;;;0.70;92.70;;;;;;4978447;28;20203;-90
2023/03/10 06:41:15;;;;;;;28.57;25.67;;;0.70;92.50;;;;;;4977942;28;20175;-90
2023/03/10 06:43:41;;;;;;;32.43;25.57;;;0.70;92.40;;;;;;4961812;28;20213;-90
2023/03/10 06:46:09;;;;;;;27.40;25.13;;;0.80;92.20;;;;;;4960485;28;20185;-90
2023/03/10 06:48:36;;;;;;;27.07;24.40;;;0.80;92.10;;;;;;4979017;28;20199;-90
2023/03/10 06:51:05;;;;;;;29.67;26.80;;;0.80;91.90;;;;;;4978410;28;20240;-90
2023/03/10 06:53:31;;;;;;;24.00;21.50;;;0.80;91.80;;;;;;4962117;28;20205;-90
2023/03/10 06:56:06;;;;;;;30.00;26.83;;;0.80;91.70;;;;;;4962197;28;20561;-90
2023/03/10 06:58:34;;;;;;;23.93;21.80;;;0.80;91.60;;;;;;4978007;28;20208;-90
2023/03/10 07:01:00;;;;;;;29.37;26.50;;;0.90;91.50;;;;;;4961992;28;20180;-90
2023/03/10 07:03:27;;;;;;;33.23;27.10;;;0.90;91.30;;;;;;4961216;28;20204;-90
2023/03/10 07:05:54;;;;;;;21.83;19.93;;;0.90;91.20;;;;;;4961590;28;20191;-91
2023/03/10 07:08:20;;;;;;;24.17;21.53;;;0.90;91.20;;;;;;4980474;28;20202;-90
2023/03/10 07:10:45;;;;;;;22.90;20.63;;;0.90;91.10;;;;;;4980973;28;20217;-90
2023/03/10 07:13:14;;;;;;;24.43;22.20;;;0.90;91.10;;;;;;4980395;28;20208;-90
2023/03/10 07:15:40;;;;;;;20.57;18.93;;;0.90;90.90;;;;;;4980182;28;20178;-90
2023/03/10 07:18:06;;;;;;;21.87;19.97;;;1.00;90.90;;;;;;4980573;28;20197;-90
2023/03/10 07:20:32;;;;;;;18.33;16.80;;;1.00;90.80;;;;;;4982815;28;20524;-90
2023/03/10 07:22:57;;;;;;;18.07;16.47;;;1.00;90.50;;;;;;4963265;28;20235;-88
2023/03/10 07:25:24;;;;;;;22.60;20.30;;;1.00;90.40;;;;;;4978777;28;20230;-91
2023/03/10 07:27:50;;;;;;;19.30;17.40;;;1.10;90.50;;;;;;4964031;28;20730;-91
2023/03/10 07:30:15;;;;;;;18.77;17.27;;;1.00;90.40;;;;;;4964056;28;20181;-90
2023/03/10 07:32:41;;;;;;;20.67;18.80;;;1.10;90.30;;;;;;4963348;28;20554;-91
2023/03/10 07:35:08;;;;;;;32.43;28.93;;;1.10;90.30;;;;;;4961300;28;20220;-91
2023/03/10 07:37:37;;;;;;;33.53;29.93;;;1.20;90.30;;;;;;4960243;28;20221;-91
2023/03/10 07:40:05;;;;;;;30.10;24.00;;;1.20;90.40;;;;;;4961393;28;20606;-91
2023/03/10 07:42:30;;;;;;;22.80;20.47;;;1.20;90.50;;;;;;4982514;28;20230;-91
2023/03/10 07:44:56;;;;;;;21.67;19.83;;;1.10;90.30;;;;;;4982833;28;20188;-92
2023/03/10 07:47:21;;;;;;;27.97;24.70;;;1.20;90.30;;;;;;4966245;28;20217;-91
2023/03/10 07:49:47;;;;;;;25.30;22.73;;;1.20;90.30;;;;;;4967430;28;20333;-91
2023/03/10 07:52:14;;;;;;;26.37;23.77;;;1.20;90.20;;;;;;4968341;28;20197;-91
2023/03/10 07:54:40;;;;;;;35.50;31.43;;;1.20;90.20;;;;;;4969105;28;20276;-91
2023/03/10 07:57:05;;;;;;;39.37;34.17;;;1.20;90.30;;;;;;4971883;28;20235;-92
2023/03/10 07:59:31;;;;;;;36.10;28.33;;;1.30;90.40;;;;;;4970132;28;20179;-91
2023/03/10 08:01:56;;;;;;;28.50;24.67;;;1.30;90.40;;;;;;4975312;28;20169;-92
2023/03/10 08:04:22;;;;;;;25.53;23.03;;;1.30;90.40;;;;;;4976298;28;20179;-92
2023/03/10 08:06:47;;;;;;;24.13;21.73;;;1.20;90.30;;;;;;4966802;28;20215;-90
2023/03/10 08:09:13;;;;;;;25.93;23.33;;;1.30;90.40;;;;;;4971883;28;20209;-92
2023/03/10 08:11:39;;;;;;;28.63;25.43;;;1.30;90.30;;;;;;4968486;28;20675;-90
2023/03/10 08:14:04;;;;;;;27.77;23.97;;;1.30;90.40;;;;;;4983672;28;20196;-90
2023/03/10 08:16:30;;;;;;;26.07;23.50;;;1.30;90.30;;;;;;4969151;28;20213;-90
2023/03/10 08:18:55;;;;;;;30.90;27.60;;;1.30;90.40;;;;;;4979050;28;20253;-92
2023/03/10 08:21:21;;;;;;;35.97;27.47;;;1.30;90.30;;;;;;4961583;28;20174;-92
2023/03/10 08:23:47;;;;;;;36.07;29.27;;;1.30;90.30;;;;;;4963754;28;20272;-90
2023/03/10 08:26:15;;;;;;;28.07;25.13;;;1.30;90.40;;;;;;4979961;28;20174;-92
2023/03/10 08:28:41;;;;;;;22.83;20.47;;;1.40;90.50;;;;;;4962182;28;20571;-92
2023/03/10 08:31:18;;;;;;;28.33;23.73;;;1.30;90.40;;;;;;4962666;28;20181;-90
2023/03/10 08:33:44;;;;;;;24.20;21.70;;;1.30;90.20;;;;;;4977544;28;20643;-90
2023/03/10 08:36:12;;;;;;;29.47;25.33;;;1.30;90.20;;;;;;4981965;28;20265;-91
2023/03/10 08:38:38;;;;;;;25.83;23.10;;;1.30;90.30;;;;;;4964072;28;20285;-91
2023/03/10 08:41:31;;;;;;;23.23;19.77;;;1.30;90.10;;;;;;4965744;28;20228;-91
2023/03/10 08:43:58;;;;;;;27.93;24.87;;;1.40;90.30;;;;;;4963466;28;20236;-91
2023/03/10 08:46:25;;;;;;;31.73;26.10;;;1.40;90.30;;;;;;4964828;28;20276;-92
2023/03/10 08:48:52;;;;;;;28.60;23.53;;;1.40;90.40;;;;;;4967321;28;20203;-90
2023/03/10 08:51:18;;;;;;;20.77;19.00;;;1.40;90.40;;;;;;4965740;28;20233;-91
2023/03/10 08:53:46;;;;;;;29.23;23.93;;;1.40;90.30;;;;;;4963778;28;20202;-91
2023/03/10 08:56:12;;;;;;;23.70;21.40;;;1.40;90.10;;;;;;4964226;28;20204;-91
2023/03/10 08:58:38;;;;;;;27.70;24.10;;;1.50;90.10;;;;;;4967633;28;20291;-91
2023/03/10 09:01:04;;;;;;;26.77;23.97;;;1.50;90.20;;;;;;4965888;28;20215;-91
2023/03/10 09:03:30;;;;;;;28.20;23.20;;;1.50;90.10;;;;;;4962246;28;20208;-91
2023/03/10 09:05:56;;;;;;;21.10;19.07;;;1.50;90.10;;;;;;4963890;28;20186;-91
2023/03/10 09:08:22;;;;;;;21.07;18.83;;;1.50;90.20;;;;;;4967271;28;20228;-91
2023/03/10 09:10:47;;;;;;;28.90;25.77;;;1.50;90.10;;;;;;4965260;28;20182;-91
2023/03/10 09:13:13;;;;;;;21.70;19.50;;;1.50;90.20;;;;;;4979964;28;20703;-91
2023/03/10 09:15:41;;;;;;;18.90;17.30;;;1.50;90.20;;;;;;4981173;28;20183;-91
2023/03/10 09:18:12;;;;;;;25.07;22.70;;;1.50;90.10;;;;;;4966843;28;20221;-91
2023/03/10 09:20:39;;;;;;;28.70;23.30;;;1.50;90.10;;;;;;4962612;28;20181;-91
2023/03/10 09:23:05;;;;;;;34.63;30.93;;;1.50;90.10;;;;;;4960723;28;20175;-91
2023/03/10 09:25:31;;;;;;;32.93;29.07;;;1.60;90.40;;;;;;4962001;28;20178;-91
2023/03/10 09:27:56;;;;;;;21.80;19.93;;;1.60;90.60;;;;;;4986487;28;20221;-91
2023/03/10 09:30:22;;;;;;;24.13;20.87;;;1.60;90.30;;;;;;4965732;28;20279;-90
2023/03/10 09:32:47;;;;;;;35.43;28.60;;;1.60;90.10;;;;;;4961394;28;20604;-90
2023/03/10 09:35:13;;;;;;;29.10;26.13;;;1.60;90.30;;;;;;4962927;28;20178;-90
2023/03/10 09:37:39;;;;;;;22.97;20.70;;;1.70;90.40;;;;;;4978332;28;20216;-90
2023/03/10 09:40:08;;;;;;;27.43;24.67;;;1.60;90.20;;;;;;4961707;28;20334;-90
2023/03/10 09:42:37;;;;;;;21.27;19.17;;;1.60;90.10;;;;;;4979923;28;20190;-89
2023/03/10 09:45:16;;;;;;;32.10;24.60;;;1.60;89.80;;;;;;4978280;28;20174;-90
2023/03/10 09:48:03;;;;;;;33.53;28.70;;;1.60;89.80;;;;;;4986379;28;20194;-91
2023/03/10 09:50:35;;;;;;;35.50;29.60;;;1.70;90.10;;;;;;4974437;28;20177;-92
2023/03/10 09:53:52;;;;;;;29.53;26.47;;;1.70;90.30;;;;;;4977074;28;20182;-91
2023/03/10 09:56:27;;;;;;;24.70;22.30;;;1.70;90.10;;;;;;4953428;28;20787;-91
2023/03/10 09:59:15;;;;;;;27.10;23.37;;;1.70;90.10;;;;;;4967082;28;20257;-91
2023/03/10 10:01:45;;;;;;;26.00;22.70;;;1.60;90.10;;;;;;4967457;28;20198;-90
2023/03/10 10:04:18;;;;;;;33.53;26.50;;;1.60;90.30;;;;;;4979168;28;20202;-90
2023/03/10 10:06:45;;;;;;;27.13;23.70;;;1.70;90.30;;;;;;4962590;28;20277;-91
2023/03/10 10:09:24;;;;;;;30.17;26.83;;;1.70;90.50;;;;;;4966733;28;20198;-90
2023/03/10 10:11:49;;;;;;;34.63;28.00;;;1.70;90.40;;;;;;4970093;28;20179;-90
2023/03/10 10:14:19;;;;;;;27.27;24.53;;;1.60;90.40;;;;;;4965730;28;20241;-90
2023/03/10 10:17:12;;;;;;;29.37;25.70;;;1.70;90.50;;;;;;4967748;28;20308;-90
2023/03/10 10:19:39;;;;;;;27.83;24.70;;;1.70;90.50;;;;;;4968420;28;20198;-90
2023/03/10 10:22:12;;;;;;;27.30;24.40;;;1.70;90.30;;;;;;4966928;28;20171;-91
2023/03/10 10:24:39;;;;;;;24.23;21.57;;;1.80;90.40;;;;;;4967878;28;20649;-90
2023/03/10 10:27:05;;;;;;;24.03;21.83;;;1.70;90.40;;;;;;4967764;28;20549;-91
2023/03/10 10:29:36;;;;;;;31.30;28.10;;;1.70;90.40;;;;;;4964988;28;20234;-91
2023/03/10 10:32:04;;;;;;;33.93;29.13;;;1.80;90.70;;;;;;4962211;28;20181;-90
2023/03/10 10:34:31;;;;;;;29.70;26.57;;;1.80;90.50;;;;;;4960526;28;20190;-91
2023/03/10 10:36:58;;;;;;;26.20;23.43;;;1.80;90.50;;;;;;4977878;28;20198;-90
2023/03/10 10:39:39;;;;;;;32.73;29.17;;;1.80;90.50;;;;;;4977699;28;20182;-91
2023/03/10 10:42:29;;;;;;;39.57;33.30;;;1.80;90.40;;;;;;4960189;28;20175;-91
2023/03/10 10:45:03;;;;;;;43.23;36.03;;;1.80;90.50;;;;;;4976692;28;20182;-91
2023/03/10 10:47:50;;;;;;;42.23;37.57;;;1.80;90.60;;;;;;4976123;28;20277;-91
2023/03/10 10:50:25;;;;;;;42.00;34.50;;;1.80;90.80;;;;;;4960208;28;20170;-91
2023/03/10 10:53:12;;;;;;;36.37;32.07;;;1.80;90.80;;;;;;4958809;28;20663;-91
2023/03/10 10:55:39;;;;;;;28.20;25.37;;;1.80;91.00;;;;;;4959088;28;20193;-91
2023/03/10 10:58:25;;;;;;;32.47;29.00;;;1.80;90.70;;;;;;4958661;28;20214;-91
2023/03/10 11:00:59;;;;;;;22.53;20.47;;;1.80;90.60;;;;;;4957465;28;20181;-90
2023/03/10 11:03:35;;;;;;;25.83;23.13;;;1.80;90.50;;;;;;4975112;28;20639;-90
2023/03/10 11:06:17;;;;;;;32.07;27.10;;;1.80;90.40;;;;;;4957895;28;20182;-90
2023/03/10 11:08:49;;;;;;;20.83;19.40;;;1.90;90.50;;;;;;4958405;28;20206;-91
2023/03/10 11:11:40;;;;;;;32.97;27.63;;;1.90;90.70;;;;;;4958607;28;20233;-90
2023/03/10 11:14:18;;;;;;;34.63;28.93;;;1.80;90.50;;;;;;4959463;28;20240;-91
2023/03/10 11:16:51;;;;;;;29.10;26.00;;;1.90;90.50;;;;;;4958499;28;20202;-91
2023/03/10 11:19:45;;;;;;;30.40;27.17;;;1.80;90.50;;;;;;4958799;28;20176;-90
2023/03/10 11:22:25;;;;;;;36.53;31.53;;;1.90;90.80;;;;;;4957733;28;20170;-91
2023/03/10 11:25:09;;;;;;;32.73;27.43;;;1.80;90.80;;;;;;4976488;28;20165;-91
2023/03/10 11:27:53;;;;;;;31.17;28.20;;;1.80;90.90;;;;;;4958867;28;20564;-90
2023/03/10 11:30:34;;;;;;;36.30;32.40;;;1.90;91.10;;;;;;4975512;28;20178;-91
2023/03/10 11:33:22;;;;;;;33.17;29.43;;;1.90;91.10;;;;;;4958122;28;20170;-91
2023/03/10 11:36:20;;;;;;;36.13;32.77;;;1.80;91.20;;;;;;4958008;28;20185;-91
2023/03/10 11:38:49;;;;;;;42.10;37.73;;;1.80;91.50;;;;;;4952970;28;20217;-90
2023/03/10 11:41:23;;;;;;;40.37;34.30;;;1.80;91.60;;;;;;4959377;28;20193;-90
2023/03/10 11:44:20;;;;;;;44.37;38.17;;;1.80;91.70;;;;;;4958252;28;20162;-90
2023/03/10 11:46:52;;;;;;;50.43;44.40;;;1.80;91.90;;;;;;4960492;28;20540;-90
2023/03/10 11:49:23;;;;;;;34.93;31.63;;;1.80;92.00;;;;;;4967817;28;20248;-91
2023/03/10 11:52:06;;;;;;;37.33;33.63;;;1.80;92.10;;;;;;4958227;28;20281;-90
2023/03/10 11:54:41;;;;;;;34.57;31.50;;;1.80;92.00;;;;;;4964216;28;20191;-90
2023/03/10 11:57:16;;;;;;;43.03;38.87;;;1.70;92.00;;;;;;4958932;28;20636;-91
2023/03/10 11:59:55;;;;;;;40.40;36.20;;;1.80;92.10;;;;;;4958431;28;20647;-91
2023/03/10 12:03:03;;;;;;;41.50;37.33;;;1.80;92.10;;;;;;4975653;28;20169;-91
2023/03/10 12:05:42;;;;;;;43.03;38.63;;;1.80;92.10;;;;;;4941878;28;20218;-89
2023/03/10 12:08:12;;;;;;;46.67;41.73;;;1.80;92.20;;;;;;4977928;28;20328;-92
2023/03/10 12:10:40;;;;;;;41.97;37.37;;;1.90;92.30;;;;;;4959205;28;20191;-90
2023/03/10 12:13:22;;;;;;;47.33;42.60;;;1.80;92.30;;;;;;4958348;28;20186;-91
2023/03/10 12:15:49;;;;;;;43.57;39.20;;;1.80;92.30;;;;;;4957037;28;20188;-90
2023/03/10 12:18:14;;;;;;;39.77;36.10;;;1.90;92.50;;;;;;4957037;28;20199;-90
2023/03/10 12:20:40;;;;;;;42.17;37.67;;;1.80;92.30;;;;;;4956782;28;20190;-90
2023/03/10 12:23:08;;;;;;;48.20;43.33;;;1.80;92.50;;;;;;4956871;28;20198;-90
2023/03/10 12:25:36;;;;;;;49.57;44.40;;;1.80;92.50;;;;;;4956885;28;20202;-90
2023/03/10 12:28:27;;;;;;;47.93;43.23;;;1.80;92.50;;;;;;4977390;28;20198;-92
2023/03/10 12:31:06;;;;;;;46.17;41.57;;;1.90;92.60;;;;;;4960275;28;20173;-90
2023/03/10 12:33:40;;;;;;;49.77;45.10;;;1.80;92.60;;;;;;4961291;28;20180;-90
2023/03/10 12:36:21;;;;;;;45.93;41.17;;;1.80;92.70;;;;;;4971801;28;20568;-91
2023/03/10 12:39:21;;;;;;;47.17;42.23;;;1.80;92.70;;;;;;4975564;28;20187;-91
2023/03/10 12:41:50;;;;;;;42.07;37.83;;;1.80;92.70;;;;;;4974939;28;20182;-91
2023/03/10 12:44:28;;;;;;;50.83;46.07;;;1.70;92.80;;;;;;4992847;28;20170;-91
2023/03/10 12:47:00;;;;;;;47.93;43.17;;;1.80;92.90;;;;;;4971499;28;20198;-90